Time;durP1;ratioP1;P1;durP2;ratioP2;P2;SDS_P1;SDS_P2;PMS_P1;PMS_P2;Temp;Humidity;BMP_temperature;BMP_pressure;BME280_temperature;BME280_humidity;BME280_pressure;Samples;Min_cycle;Max_cycle;Signal;HPM_P1;HPM_P2
2021/08/26 00:00:32;;;;;;;0.68;0.50;;;;;;;22.31;55.66;101817.34;4957957;29;20441;-75
2021/08/26 00:08:12;;;;;;;0.70;0.57;;;;;;;22.34;55.51;101823.44;4956983;28;20035;-75
2021/08/26 00:10:38;;;;;;;1.98;0.90;;;;;;;22.38;55.43;101834.84;4924776;29;20121;-75
2021/08/26 00:13:06;;;;;;;0.55;0.40;;;;;;;22.37;55.33;101839.25;4957630;29;20035;-75
2021/08/26 00:15:35;;;;;;;0.88;0.77;;;;;;;22.37;55.16;101839.25;4957534;29;20377;-75
2021/08/26 00:18:00;;;;;;;0.80;0.50;;;;;;;22.37;55.33;101823.44;4957538;29;20031;-75
2021/08/26 00:20:26;;;;;;;1.08;0.70;;;;;;;22.34;55.35;101820.81;4957530;29;20035;-75
2021/08/26 00:22:51;;;;;;;0.80;0.52;;;;;;;22.33;55.30;101811.16;4940532;29;20594;-74
2021/08/26 00:25:17;;;;;;;0.80;0.57;;;;;;;22.33;55.49;101826.97;4957312;29;20572;-75
2021/08/26 00:27:43;;;;;;;1.45;1.00;;;;;;;22.34;55.51;101820.81;4924222;29;20031;-75
2021/08/26 00:30:09;;;;;;;1.30;0.70;;;;;;;22.35;55.38;101819.06;4957372;29;20118;-75
2021/08/26 00:32:34;;;;;;;0.85;0.50;;;;;;;22.34;55.30;101815.53;4957433;29;20027;-75
2021/08/26 00:34:59;;;;;;;1.20;0.70;;;;;;;22.34;55.31;101815.53;4940349;29;20118;-75
2021/08/26 00:37:25;;;;;;;0.73;0.55;;;;;;;22.36;55.21;101826.06;4909666;29;20055;-75
2021/08/26 00:39:50;;;;;;;2.30;0.80;;;;;;;22.36;55.24;101824.31;4940357;29;20032;-74
2021/08/26 00:42:15;;;;;;;0.90;0.63;;;;;;;22.32;55.26;101806.78;4940142;29;20058;-75
2021/08/26 00:44:41;;;;;;;1.08;0.68;;;;;;;22.33;55.12;101805.88;4957091;29;20090;-75
2021/08/26 00:47:09;;;;;;;1.05;0.65;;;;;;;22.36;55.22;101813.78;4940025;29;20027;-75
2021/08/26 00:49:34;;;;;;;0.65;0.52;;;;;;;22.35;55.32;101811.16;4956984;29;20525;-75
2021/08/26 00:52:00;;;;;;;1.10;0.60;;;;;;;22.34;55.19;101805.00;4939839;29;20130;-75
2021/08/26 00:54:25;;;;;;;2.08;0.70;;;;;;;22.33;55.23;101802.41;4939870;29;20071;-75
2021/08/26 00:56:51;;;;;;;1.02;0.70;;;;;;;22.30;55.17;101781.34;4956666;29;20061;-75
2021/08/26 00:59:16;;;;;;;1.80;0.82;;;;;;;22.35;55.24;101790.94;4923694;29;20091;-75
2021/08/26 01:01:55;;;;;;;1.65;0.75;;;;;;;22.34;55.18;101789.19;4956770;29;20031;-75
2021/08/26 01:04:47;;;;;;;1.25;0.60;;;;;;;22.33;55.08;101786.59;4956618;29;20110;-73
2021/08/26 01:07:28;;;;;;;1.02;0.60;;;;;;;22.29;55.11;101783.09;4956737;29;20027;-73
2021/08/26 01:10:05;;;;;;;1.92;1.10;;;;;;;22.34;55.10;101777.78;4956540;29;20474;-73
2021/08/26 01:12:31;;;;;;;2.13;0.82;;;;;;;22.33;54.93;101776.06;4939322;29;20055;-73
2021/08/26 01:14:57;;;;;;;1.08;0.70;;;;;;;22.28;55.14;101768.16;4956445;29;20078;-73
2021/08/26 01:17:27;;;;;;;1.35;0.70;;;;;;;22.34;54.91;101778.66;4956532;29;20061;-74
2021/08/26 01:19:54;;;;;;;0.75;0.52;;;;;;;22.33;55.16;101771.63;4956349;28;20066;-75
2021/08/26 01:22:21;;;;;;;1.88;1.35;;;;;;;22.34;54.99;101761.97;4956047;29;20041;-75
2021/08/26 01:24:55;;;;;;;1.80;1.00;;;;;;;22.28;55.11;101768.16;4956325;29;20378;-75
2021/08/26 01:27:21;;;;;;;1.92;0.80;;;;;;;22.26;55.03;101769.03;4956490;29;20031;-75
2021/08/26 01:29:48;;;;;;;1.55;0.70;;;;;;;22.33;55.08;101774.25;4956360;29;20090;-73
2021/08/26 01:32:22;;;;;;;1.02;0.70;;;;;;;22.30;54.93;101768.16;4956049;29;20023;-74
2021/08/26 01:34:49;;;;;;;1.35;1.00;;;;;;;22.27;55.01;101761.13;4956200;29;20071;-73
2021/08/26 01:37:19;;;;;;;0.87;0.60;;;;;;;22.34;54.94;101770.75;4956207;29;20073;-74
2021/08/26 01:39:49;;;;;;;1.73;0.93;;;;;;;22.29;54.97;101769.91;4956016;29;20169;-73
2021/08/26 01:42:16;;;;;;;1.07;0.70;;;;;;;22.24;55.07;101761.16;4956003;29;20055;-74
2021/08/26 01:44:42;;;;;;;1.25;0.63;;;;;;;22.29;54.90;101766.41;4938795;29;20032;-74
2021/08/26 01:47:16;;;;;;;2.40;0.83;;;;;;;22.32;54.88;101772.53;4938785;29;20090;-73
2021/08/26 01:49:47;;;;;;;1.88;1.10;;;;;;;22.31;54.93;101780.44;4956014;29;20425;-74
2021/08/26 01:52:13;;;;;;;1.52;1.02;;;;;;;22.32;54.91;101777.81;4956001;29;20118;-73
2021/08/26 01:54:38;;;;;;;2.30;1.10;;;;;;;22.31;54.88;101759.38;4938628;29;20520;-73
2021/08/26 01:57:04;;;;;;;2.00;1.20;;;;;;;22.30;54.77;101763.75;4955741;29;20035;-73
2021/08/26 01:59:30;;;;;;;2.92;0.80;;;;;;;22.33;54.93;101773.41;4955864;29;20031;-73
2021/08/26 02:01:56;;;;;;;2.10;0.80;;;;;;;22.32;54.62;101761.13;4955731;29;20039;-74
2021/08/26 02:04:21;;;;;;;0.82;0.70;;;;;;;22.32;55.20;101750.59;4955519;29;20031;-73
2021/08/26 02:06:46;;;;;;;2.80;1.02;;;;;;;22.32;54.89;101759.38;4922582;29;20151;-73
2021/08/26 02:09:12;;;;;;;1.63;1.00;;;;;;;22.31;54.83;101752.34;4938442;29;20031;-73
2021/08/26 02:11:37;;;;;;;3.20;0.93;;;;;;;22.31;54.84;101749.72;4938688;29;20037;-73
2021/08/26 02:14:03;;;;;;;1.80;1.10;;;;;;;22.27;54.85;101749.72;4955916;29;20143;-74
2021/08/26 02:16:29;;;;;;;1.87;0.90;;;;;;;22.26;54.66;101746.22;4955766;29;20385;-73
2021/08/26 02:18:54;;;;;;;1.77;1.00;;;;;;;22.29;54.69;101745.31;4938506;29;20035;-73
2021/08/26 02:21:19;;;;;;;1.33;0.80;;;;;;;22.24;54.87;101721.63;4955600;29;20062;-73
2021/08/26 02:23:47;;;;;;;1.23;0.70;;;;;;;22.25;54.88;101733.91;4922549;29;20031;-73
2021/08/26 02:26:12;;;;;;;1.80;1.03;;;;;;;22.24;55.04;101734.81;4923109;29;20027;-74
2021/08/26 02:28:37;;;;;;;1.80;1.00;;;;;;;22.30;54.77;101736.53;4955525;29;20024;-73
2021/08/26 02:31:03;;;;;;;1.50;0.90;;;;;;;22.28;54.66;101741.81;4940585;29;20058;-74
2021/08/26 02:33:28;;;;;;;0.83;0.70;;;;;;;22.26;54.52;101729.53;4944714;29;20042;-73
2021/08/26 02:35:53;;;;;;;2.28;1.63;;;;;;;22.28;54.78;101730.41;4944641;29;20031;-73
2021/08/26 02:38:19;;;;;;;1.42;0.90;;;;;;;22.28;54.91;101731.28;4961561;28;20051;-73
2021/08/26 02:40:44;;;;;;;1.60;0.70;;;;;;;22.28;54.58;101741.81;4961674;29;20074;-73
2021/08/26 02:43:10;;;;;;;2.07;0.97;;;;;;;22.27;54.89;101747.09;4961617;29;20043;-73
2021/08/26 02:45:35;;;;;;;1.33;1.00;;;;;;;22.27;54.72;101744.44;4944479;28;20094;-73
2021/08/26 02:48:00;;;;;;;1.80;1.05;;;;;;;22.28;54.54;101743.56;4961615;29;20027;-74
2021/08/26 02:50:26;;;;;;;1.40;0.80;;;;;;;22.28;54.56;101730.41;4928505;29;20038;-75
2021/08/26 02:52:51;;;;;;;1.60;0.80;;;;;;;22.26;54.58;101738.31;4944425;29;20386;-75
2021/08/26 02:55:16;;;;;;;1.80;0.70;;;;;;;22.28;54.69;101740.94;4928473;28;20449;-75
2021/08/26 02:57:42;;;;;;;2.33;1.27;;;;;;;22.28;54.79;101731.28;4961553;29;20133;-75
2021/08/26 03:00:08;;;;;;;2.22;1.00;;;;;;;22.24;54.66;101733.94;4928431;29;20031;-75
2021/08/26 03:02:33;;;;;;;1.77;0.90;;;;;;;22.23;54.43;101730.41;4944200;29;20023;-75
2021/08/26 03:04:59;;;;;;;1.33;0.82;;;;;;;22.28;54.58;101747.09;4928186;29;20027;-75
2021/08/26 03:07:24;;;;;;;1.52;1.20;;;;;;;22.28;54.57;101736.53;4944359;29;20054;-75
2021/08/26 03:09:50;;;;;;;1.30;0.88;;;;;;;22.23;54.54;101725.16;4944236;28;20034;-75
2021/08/26 03:12:15;;;;;;;2.00;1.00;;;;;;;22.24;54.66;101726.91;4929174;29;20042;-75
2021/08/26 03:14:41;;;;;;;1.98;1.08;;;;;;;22.23;54.50;101732.16;4962121;28;20026;-75
2021/08/26 03:17:06;;;;;;;2.07;0.80;;;;;;;22.25;54.43;101731.28;4962019;28;20359;-74
2021/08/26 03:19:31;;;;;;;1.70;0.95;;;;;;;22.27;54.64;101728.66;4928336;29;20152;-75
2021/08/26 03:21:57;;;;;;;4.63;1.23;;;;;;;22.26;54.54;101724.25;4912655;28;20478;-75
2021/08/26 03:24:22;;;;;;;1.50;1.17;;;;;;;22.28;54.61;101741.81;4944323;29;20113;-75
2021/08/26 03:26:47;;;;;;;2.25;1.13;;;;;;;22.25;54.54;101733.03;4961551;28;20492;-75
2021/08/26 03:29:13;;;;;;;1.80;1.00;;;;;;;22.26;54.37;101722.50;4928282;29;20031;-75
2021/08/26 03:31:38;;;;;;;1.90;1.02;;;;;;;22.25;54.61;101718.09;4944142;29;20105;-75
2021/08/26 03:34:03;;;;;;;2.53;1.58;;;;;;;22.25;54.46;101714.59;4928374;29;20035;-75
2021/08/26 03:36:29;;;;;;;1.80;1.08;;;;;;;22.24;54.41;101716.34;4928221;29;20500;-75
2021/08/26 03:38:55;;;;;;;1.52;0.93;;;;;;;22.27;54.44;101718.97;4943838;29;20062;-75
2021/08/26 03:41:21;;;;;;;1.60;0.80;;;;;;;22.22;54.37;101715.50;4961123;28;20065;-75
2021/08/26 03:43:48;;;;;;;2.75;0.75;;;;;;;22.25;54.53;101717.22;4940246;29;20035;-75
2021/08/26 03:46:14;;;;;;;1.80;1.00;;;;;;;22.26;54.48;101719.88;4940930;29;20027;-75
2021/08/26 03:48:39;;;;;;;1.65;0.90;;;;;;;22.27;54.34;101718.97;4958075;29;20035;-75
2021/08/26 03:51:04;;;;;;;1.85;1.15;;;;;;;22.26;54.38;101711.97;4940862;29;20031;-75
2021/08/26 03:53:30;;;;;;;2.05;1.08;;;;;;;22.23;54.21;101700.56;4957905;29;20058;-75
2021/08/26 03:55:55;;;;;;;1.13;0.63;;;;;;;22.25;54.35;101710.19;4940728;29;20036;-75
2021/08/26 03:58:20;;;;;;;2.33;1.03;;;;;;;22.17;54.31;101688.31;4940604;29;20122;-75
2021/08/26 04:00:46;;;;;;;1.00;0.70;;;;;;;22.22;54.31;101704.94;4957808;29;20062;-75
2021/08/26 04:03:11;;;;;;;2.10;1.30;;;;;;;22.21;54.37;101703.19;4940807;29;20106;-75
2021/08/26 04:05:37;;;;;;;4.18;1.33;;;;;;;22.25;54.34;101710.19;4924688;29;20043;-75
2021/08/26 04:08:02;;;;;;;2.90;0.97;;;;;;;22.24;54.32;101708.44;4940512;29;20466;-75
2021/08/26 04:10:28;;;;;;;1.20;0.73;;;;;;;22.22;54.29;101701.44;4957665;29;20083;-75
2021/08/26 04:12:53;;;;;;;1.30;0.70;;;;;;;22.25;54.19;101718.09;4924797;29;20098;-75
2021/08/26 04:15:18;;;;;;;1.43;1.27;;;;;;;22.22;54.25;101706.72;4957587;29;20118;-75
2021/08/26 04:17:44;;;;;;;1.85;0.90;;;;;;;22.20;54.33;101703.25;4957766;29;20379;-75
2021/08/26 04:20:10;;;;;;;1.67;0.70;;;;;;;22.25;54.13;101707.56;4940361;29;20113;-75
2021/08/26 04:22:35;;;;;;;1.83;1.23;;;;;;;22.22;54.25;101704.06;4957569;29;20035;-75
2021/08/26 04:25:00;;;;;;;2.40;1.10;;;;;;;22.25;54.27;101714.59;4924352;29;20537;-75
2021/08/26 04:27:26;;;;;;;1.85;0.80;;;;;;;22.22;54.27;101694.41;4957773;29;20039;-75
2021/08/26 04:29:51;;;;;;;4.15;1.60;;;;;;;22.17;54.18;101698.84;4940467;29;20046;-75
2021/08/26 04:32:16;;;;;;;2.03;0.90;;;;;;;22.23;54.25;101711.09;4940442;29;20398;-73
2021/08/26 04:34:42;;;;;;;2.45;1.33;;;;;;;22.21;54.30;101703.19;4924403;29;20078;-74
2021/08/26 04:37:07;;;;;;;2.45;1.00;;;;;;;22.24;54.29;101708.44;4924222;29;20028;-74
2021/08/26 04:39:33;;;;;;;2.40;1.27;;;;;;;22.25;54.22;101707.56;4957290;29;20470;-73
2021/08/26 04:41:58;;;;;;;1.67;0.70;;;;;;;22.25;54.14;101698.78;4957242;29;20385;-74
2021/08/26 04:44:23;;;;;;;2.00;1.00;;;;;;;22.21;54.32;101691.78;4957119;29;20031;-74
2021/08/26 04:46:49;;;;;;;2.75;1.33;;;;;;;22.17;54.13;101687.44;4957306;29;20031;-74
2021/08/26 04:49:14;;;;;;;2.63;0.90;;;;;;;22.24;54.15;101705.81;4940316;29;20035;-74
2021/08/26 04:51:39;;;;;;;3.05;0.95;;;;;;;22.23;54.29;101701.44;4958090;29;20054;-73
2021/08/26 04:54:05;;;;;;;1.50;1.00;;;;;;;22.24;54.16;101697.03;4956788;28;20039;-74
2021/08/26 04:56:30;;;;;;;1.45;0.80;;;;;;;22.23;54.21;101698.78;4956934;29;20034;-73
2021/08/26 04:58:55;;;;;;;1.83;0.90;;;;;;;22.24;54.31;101699.69;4956807;29;20490;-73
2021/08/26 05:01:21;;;;;;;1.48;1.02;;;;;;;22.17;54.09;101690.94;4956801;29;20046;-74
2021/08/26 05:03:46;;;;;;;1.90;1.02;;;;;;;22.22;54.27;101699.69;4939757;29;20043;-74
2021/08/26 05:06:11;;;;;;;1.85;1.10;;;;;;;22.16;54.32;101683.06;4956777;29;20032;-74
2021/08/26 05:08:38;;;;;;;1.70;1.05;;;;;;;22.18;54.04;101684.81;4956732;29;20039;-73
2021/08/26 05:11:03;;;;;;;1.73;0.75;;;;;;;22.20;54.33;101690.91;4924064;29;20034;-74
2021/08/26 05:13:31;;;;;;;1.65;1.20;;;;;;;22.15;54.19;101683.94;4923517;29;20035;-74
2021/08/26 05:15:57;;;;;;;2.25;1.15;;;;;;;22.23;54.17;101697.91;4939868;29;20027;-74
2021/08/26 05:18:23;;;;;;;1.40;0.90;;;;;;;22.20;54.05;101695.34;4938713;29;20046;-74
2021/08/26 05:20:48;;;;;;;1.55;0.95;;;;;;;22.18;54.28;101697.09;4956534;29;20031;-74
2021/08/26 05:23:13;;;;;;;1.65;0.90;;;;;;;22.17;54.31;101690.06;4923446;29;20038;-74
2021/08/26 05:25:39;;;;;;;1.45;0.80;;;;;;;22.16;54.04;101683.06;4923164;29;20035;-74
2021/08/26 05:28:04;;;;;;;2.25;0.80;;;;;;;22.22;54.10;101689.13;4923302;29;20031;-75
2021/08/26 05:30:30;;;;;;;1.92;1.00;;;;;;;22.19;54.18;101686.56;4956254;29;20035;-75
2021/08/26 05:32:57;;;;;;;0.95;0.60;;;;;;;22.22;54.04;101688.25;4923218;29;20051;-75
2021/08/26 05:35:23;;;;;;;0.85;0.73;;;;;;;22.19;53.97;101683.91;4956192;29;20039;-75
2021/08/26 05:37:48;;;;;;;1.95;0.90;;;;;;;22.17;54.13;101685.69;4956555;29;20387;-75
2021/08/26 05:40:13;;;;;;;1.65;0.88;;;;;;;22.21;54.04;101692.66;4938875;29;20039;-75
2021/08/26 05:42:39;;;;;;;1.17;0.60;;;;;;;22.23;54.05;101696.16;4955959;29;20123;-74
2021/08/26 05:45:05;;;;;;;1.05;0.65;;;;;;;22.18;54.04;101682.16;4955908;29;20035;-74
2021/08/26 05:47:30;;;;;;;1.55;1.10;;;;;;;22.17;53.97;101684.81;4939001;29;20027;-74
2021/08/26 05:49:56;;;;;;;1.48;1.00;;;;;;;22.23;53.95;101700.56;4923069;29;20039;-74
2021/08/26 05:52:21;;;;;;;1.37;1.00;;;;;;;22.23;54.02;101700.56;4939016;29;20065;-74
2021/08/26 05:54:47;;;;;;;0.90;0.60;;;;;;;22.21;54.04;101704.97;4955869;29;20490;-74
2021/08/26 05:57:12;;;;;;;1.42;0.90;;;;;;;22.24;54.05;101704.94;4955995;29;20115;-74
2021/08/26 05:59:38;;;;;;;1.40;0.90;;;;;;;22.22;53.97;101690.91;4922790;29;20084;-74
2021/08/26 06:02:03;;;;;;;2.15;1.02;;;;;;;22.18;54.01;101684.81;4938644;29;20042;-74
2021/08/26 06:04:29;;;;;;;0.80;0.63;;;;;;;22.23;53.99;101692.66;4922695;29;20043;-74
2021/08/26 06:06:54;;;;;;;2.13;0.90;;;;;;;22.18;53.88;101684.81;4938089;29;20035;-74
2021/08/26 06:09:20;;;;;;;1.20;0.77;;;;;;;22.24;53.80;101697.03;4938454;29;20031;-75
2021/08/26 06:11:45;;;;;;;1.95;0.85;;;;;;;22.24;53.85;101697.03;4923049;29;20521;-75
2021/08/26 06:14:11;;;;;;;2.22;0.98;;;;;;;22.22;53.99;101698.81;4955840;29;20085;-75
2021/08/26 06:16:36;;;;;;;1.30;0.90;;;;;;;22.26;54.06;101700.53;4938597;29;20422;-75
2021/08/26 06:19:02;;;;;;;1.17;0.82;;;;;;;22.25;53.81;101694.41;4938341;29;20027;-75
2021/08/26 06:21:28;;;;;;;1.52;1.00;;;;;;;22.29;53.57;101698.78;4922727;29;20082;-75
2021/08/26 06:23:53;;;;;;;2.47;1.33;;;;;;;22.33;53.63;101692.56;4922472;29;20078;-75
2021/08/26 06:26:19;;;;;;;1.58;0.70;;;;;;;22.35;53.53;101689.94;4955452;29;20087;-75
2021/08/26 06:28:44;;;;;;;1.70;1.00;;;;;;;22.37;53.54;101696.06;4955801;29;20033;-74
2021/08/26 06:31:10;;;;;;;1.70;1.20;;;;;;;22.38;53.37;101701.31;4956178;29;20032;-75
2021/08/26 06:33:35;;;;;;;1.93;0.80;;;;;;;22.26;53.57;101692.63;4939006;29;20070;-74
2021/08/26 06:36:01;;;;;;;1.45;0.77;;;;;;;22.27;53.70;101692.63;4922650;29;20031;-75
2021/08/26 06:38:26;;;;;;;0.88;0.60;;;;;;;22.31;53.64;101720.72;4938450;29;20055;-75
2021/08/26 06:40:51;;;;;;;1.20;0.70;;;;;;;22.31;53.74;101720.72;4938268;29;20027;-75
2021/08/26 06:43:20;;;;;;;2.03;0.95;;;;;;;22.28;53.42;101715.47;4955291;29;20031;-75
2021/08/26 06:45:45;;;;;;;2.20;0.90;;;;;;;22.31;53.66;101704.03;4955594;29;20090;-74
2021/08/26 06:48:10;;;;;;;1.53;0.80;;;;;;;22.31;53.70;101707.53;4938276;29;20082;-73
2021/08/26 06:50:36;;;;;;;1.48;1.13;;;;;;;22.34;53.64;101717.16;4922636;29;20078;-74
2021/08/26 06:53:02;;;;;;;1.37;0.70;;;;;;;22.36;53.44;101708.38;4938075;29;20093;-74
2021/08/26 06:55:27;;;;;;;1.20;0.70;;;;;;;22.38;53.44;101703.09;4937988;29;20111;-74
2021/08/26 06:57:52;;;;;;;2.10;0.70;;;;;;;22.43;53.28;101710.09;4922025;29;20035;-73
2021/08/26 07:00:18;;;;;;;1.27;0.60;;;;;;;22.38;53.44;101717.13;4937934;29;20130;-73
2021/08/26 07:02:43;;;;;;;1.42;0.90;;;;;;;22.33;53.57;101708.38;4956366;29;20027;-73
2021/08/26 07:05:12;;;;;;;1.58;0.80;;;;;;;22.35;53.56;101716.28;4940621;29;20434;-74
2021/08/26 07:07:37;;;;;;;1.60;0.95;;;;;;;22.27;53.63;101702.28;4910805;29;20027;-74
2021/08/26 07:10:06;;;;;;;1.90;0.90;;;;;;;22.33;53.48;101713.66;4943317;29;20035;-73
2021/08/26 07:12:32;;;;;;;1.73;0.80;;;;;;;22.32;53.70;101711.94;4943657;29;20494;-72
2021/08/26 07:15:00;;;;;;;2.40;1.15;;;;;;;22.27;53.69;101700.53;4959668;29;20059;-73
2021/08/26 07:17:26;;;;;;;1.00;0.70;;;;;;;22.31;53.73;101696.13;4944314;29;20031;-72
2021/08/26 07:19:52;;;;;;;1.48;0.63;;;;;;;22.28;53.60;101690.88;4945482;29;20039;-74
2021/08/26 07:22:23;;;;;;;0.75;0.60;;;;;;;22.14;53.78;101664.63;4945037;29;20027;-74
2021/08/26 07:24:48;;;;;;;1.10;0.80;;;;;;;22.33;53.54;101699.63;4944366;29;20035;-73
2021/08/26 07:27:22;;;;;;;1.55;0.70;;;;;;;22.22;53.65;101683.00;4961359;29;20484;-73
2021/08/26 07:29:48;;;;;;;1.27;0.70;;;;;;;22.29;53.67;101684.72;4943925;29;20035;-73
2021/08/26 07:32:13;;;;;;;1.00;0.65;;;;;;;22.31;53.53;101697.00;4961109;29;20027;-73
2021/08/26 07:34:41;;;;;;;0.88;0.60;;;;;;;22.21;53.60;101671.56;4961208;29;20466;-73
2021/08/26 07:37:09;;;;;;;2.28;0.80;;;;;;;22.28;53.63;101680.34;4943885;29;20375;-74
2021/08/26 07:39:34;;;;;;;0.88;0.75;;;;;;;22.38;53.54;101684.63;4926588;29;20035;-73
2021/08/26 07:42:06;;;;;;;1.02;0.73;;;;;;;22.40;53.30;101689.03;4959584;29;20393;-73
2021/08/26 07:44:31;;;;;;;1.25;0.82;;;;;;;22.34;53.53;101675.00;4943486;29;20062;-74
2021/08/26 07:46:57;;;;;;;0.93;0.40;;;;;;;22.34;53.53;101678.50;4912304;29;20502;-73
2021/08/26 07:49:22;;;;;;;1.35;1.08;;;;;;;22.36;53.49;101682.00;4944018;29;20150;-74
2021/08/26 07:51:48;;;;;;;1.25;0.60;;;;;;;22.33;53.66;101681.19;4924995;29;20085;-74
2021/08/26 07:54:13;;;;;;;1.52;1.10;;;;;;;22.31;53.43;101683.81;4941113;29;20031;-74
2021/08/26 07:56:38;;;;;;;0.80;0.70;;;;;;;22.36;53.57;101691.69;4925038;29;20379;-73
2021/08/26 07:59:04;;;;;;;1.40;0.70;;;;;;;22.33;53.50;101681.19;4958049;29;20385;-74
2021/08/26 08:01:30;;;;;;;0.98;0.75;;;;;;;22.35;53.49;101688.16;4940791;29;20046;-74
2021/08/26 08:03:55;;;;;;;1.30;0.70;;;;;;;22.35;53.62;101684.66;4957850;29;19911;-73
2021/08/26 08:06:20;;;;;;;1.48;0.80;;;;;;;22.34;53.57;101686.41;4957661;29;20043;-74
2021/08/26 08:08:46;;;;;;;1.20;0.60;;;;;;;22.35;53.56;101696.06;4940631;29;20039;-74
2021/08/26 08:11:17;;;;;;;0.98;0.80;;;;;;;22.36;53.63;101702.22;4925910;29;20055;-72
2021/08/26 08:13:51;;;;;;;1.73;1.17;;;;;;;22.20;53.74;101685.63;4943908;29;20035;-73
2021/08/26 08:16:17;;;;;;;1.17;0.57;;;;;;;22.33;53.48;101718.91;4959116;29;20051;-74
2021/08/26 08:18:42;;;;;;;1.45;0.90;;;;;;;22.31;53.68;101715.44;4958513;29;20505;-74
2021/08/26 08:21:11;;;;;;;1.30;0.88;;;;;;;22.25;53.79;101701.44;4961597;29;20039;-72
2021/08/26 08:23:36;;;;;;;0.90;0.70;;;;;;;22.27;53.70;101703.16;4961516;29;20047;-73
2021/08/26 08:26:02;;;;;;;1.80;1.25;;;;;;;22.35;53.64;101709.25;4943962;29;20027;-74
2021/08/26 08:28:33;;;;;;;1.55;0.90;;;;;;;22.29;53.50;101690.88;4960092;28;20038;-72
2021/08/26 08:31:05;;;;;;;1.65;0.98;;;;;;;22.31;53.51;101689.09;4943437;29;20035;-73
2021/08/26 08:33:31;;;;;;;0.88;0.70;;;;;;;22.38;53.43;101693.41;4961220;29;20027;-74
2021/08/26 08:35:59;;;;;;;1.88;1.02;;;;;;;22.27;53.58;101662.78;4961732;29;20030;-74
2021/08/26 08:38:25;;;;;;;1.42;0.70;;;;;;;22.40;53.34;101678.47;4943698;29;20502;-73
2021/08/26 08:40:50;;;;;;;2.30;0.73;;;;;;;22.38;53.44;101674.09;4957156;29;20078;-74
2021/08/26 08:43:15;;;;;;;1.73;0.90;;;;;;;22.39;53.44;101676.72;4957108;29;20035;-75
2021/08/26 08:45:45;;;;;;;1.65;0.90;;;;;;;22.35;53.43;101674.13;4939758;29;20110;-75
2021/08/26 08:48:11;;;;;;;1.70;0.90;;;;;;;22.32;53.61;101674.16;4940033;29;20039;-76
2021/08/26 08:50:39;;;;;;;1.67;0.93;;;;;;;22.36;53.55;101691.69;4923958;29;20034;-75
2021/08/26 08:53:04;;;;;;;0.90;0.70;;;;;;;22.35;53.68;101692.56;4957171;29;20050;-75
2021/08/26 08:55:30;;;;;;;1.20;0.60;;;;;;;22.36;53.65;101695.19;4957123;29;20019;-75
2021/08/26 08:57:55;;;;;;;1.43;0.90;;;;;;;22.29;53.61;101676.81;4939566;29;20102;-75
2021/08/26 09:00:21;;;;;;;2.25;0.95;;;;;;;22.35;53.77;101698.72;4923868;29;20544;-75
2021/08/26 09:02:47;;;;;;;0.82;0.70;;;;;;;22.36;53.60;101692.56;4939616;29;20485;-75
2021/08/26 09:05:13;;;;;;;1.38;0.70;;;;;;;22.30;53.73;101684.72;4956711;29;20034;-75
2021/08/26 09:07:38;;;;;;;1.95;0.90;;;;;;;22.36;53.69;101692.56;4956900;29;20027;-74
2021/08/26 09:10:06;;;;;;;1.40;0.80;;;;;;;22.36;53.69;101691.69;4939532;29;20068;-75
2021/08/26 09:12:43;;;;;;;1.97;1.10;;;;;;;22.37;53.65;101693.44;4956664;29;20027;-75
2021/08/26 09:15:16;;;;;;;1.85;1.20;;;;;;;22.38;53.63;101698.69;4939312;29;20039;-75
2021/08/26 09:17:45;;;;;;;1.55;0.70;;;;;;;22.35;53.66;101688.16;4956698;29;20031;-75
2021/08/26 09:20:13;;;;;;;0.97;0.70;;;;;;;22.38;53.62;101690.78;4956730;29;20271;-75
2021/08/26 09:22:38;;;;;;;2.05;0.80;;;;;;;22.39;53.55;101686.38;4939259;29;20031;-75
2021/08/26 09:25:05;;;;;;;1.50;0.77;;;;;;;22.40;53.58;101685.50;4923295;29;20046;-75
2021/08/26 09:27:44;;;;;;;1.97;1.20;;;;;;;22.40;53.61;101694.28;4939087;29;20048;-75
2021/08/26 09:30:12;;;;;;;2.10;1.13;;;;;;;22.38;53.62;101687.28;4956253;29;20024;-75
2021/08/26 09:32:46;;;;;;;1.15;0.80;;;;;;;22.35;53.66;101671.47;4956143;29;20070;-75
2021/08/26 09:35:20;;;;;;;1.60;0.83;;;;;;;22.33;53.31;101674.13;4956202;29;20023;-75
2021/08/26 09:37:55;;;;;;;2.38;0.70;;;;;;;22.36;53.78;101683.78;4956304;29;20084;-75
2021/08/26 09:40:24;;;;;;;1.65;1.00;;;;;;;22.34;53.66;101682.91;4955342;28;20027;-75
2021/08/26 09:43:06;;;;;;;1.55;0.90;;;;;;;22.32;53.83;101685.59;4956239;29;20051;-75
2021/08/26 09:45:33;;;;;;;1.83;0.77;;;;;;;22.33;53.67;101675.91;4923982;29;20028;-75
2021/08/26 09:48:05;;;;;;;1.45;1.00;;;;;;;22.36;53.56;101689.91;4938846;29;20054;-75
2021/08/26 09:50:34;;;;;;;2.83;1.00;;;;;;;22.37;53.57;101693.44;4938887;29;20086;-75
2021/08/26 09:53:00;;;;;;;1.15;0.68;;;;;;;22.27;53.74;101663.66;4956190;29;20090;-75
2021/08/26 09:55:25;;;;;;;0.90;0.80;;;;;;;22.36;53.65;101691.69;4907430;29;20027;-75
2021/08/26 09:58:13;;;;;;;1.83;1.00;;;;;;;22.32;53.64;101689.97;4955963;29;20039;-75
2021/08/26 10:00:38;;;;;;;1.90;0.88;;;;;;;22.38;53.61;101689.91;4938566;29;20123;-75
2021/08/26 10:03:05;;;;;;;1.60;0.90;;;;;;;22.35;53.58;101680.25;4955960;29;20490;-75
2021/08/26 10:05:31;;;;;;;1.85;0.85;;;;;;;22.39;53.58;101692.53;4956001;29;20027;-74
2021/08/26 10:07:57;;;;;;;2.95;1.20;;;;;;;22.39;53.56;101682.00;4935570;29;20034;-74
2021/08/26 10:10:23;;;;;;;2.22;1.20;;;;;;;22.38;53.38;101690.78;4970700;29;20039;-75
2021/08/26 10:12:49;;;;;;;1.97;0.90;;;;;;;22.37;53.66;101683.75;4939397;29;20107;-74
2021/08/26 10:15:14;;;;;;;1.27;0.80;;;;;;;22.34;53.66;101689.03;4970482;29;20031;-75
2021/08/26 10:17:41;;;;;;;1.50;0.85;;;;;;;22.32;53.79;101687.34;4938717;29;20113;-75
2021/08/26 10:20:08;;;;;;;2.05;1.30;;;;;;;22.36;53.59;101699.59;4922686;29;20061;-75
2021/08/26 10:22:33;;;;;;;1.35;0.60;;;;;;;22.36;53.88;101689.03;4955516;29;20553;-75
2021/08/26 10:25:00;;;;;;;2.15;0.77;;;;;;;22.28;53.81;101677.69;4938124;29;20047;-75
2021/08/26 10:27:28;;;;;;;1.48;0.85;;;;;;;22.32;53.51;101690.84;4938438;29;20039;-75
2021/08/26 10:29:53;;;;;;;1.42;0.80;;;;;;;22.31;53.61;101683.81;4955295;29;20039;-75
2021/08/26 10:32:24;;;;;;;1.10;0.60;;;;;;;22.35;53.58;101687.28;4922527;29;20390;-75
2021/08/26 10:35:10;;;;;;;0.90;0.60;;;;;;;22.40;53.59;101688.13;4955488;29;20102;-75
2021/08/26 10:37:49;;;;;;;1.60;0.90;;;;;;;22.40;53.58;101698.69;4937911;29;20050;-75
2021/08/26 10:40:30;;;;;;;2.28;1.00;;;;;;;22.39;53.78;101699.56;4955480;29;20038;-75
2021/08/26 10:42:57;;;;;;;2.25;1.25;;;;;;;22.38;53.70;101705.72;4938783;29;20131;-75
2021/08/26 10:45:29;;;;;;;2.28;0.82;;;;;;;22.39;53.50;101703.06;4955270;29;20038;-75
2021/08/26 10:47:57;;;;;;;2.20;0.98;;;;;;;22.41;53.50;101701.31;4938071;29;20367;-75
2021/08/26 10:50:25;;;;;;;2.45;1.00;;;;;;;22.42;53.55;101700.44;4955186;29;20082;-75
2021/08/26 10:52:57;;;;;;;1.25;0.80;;;;;;;22.40;53.36;101691.66;4957414;28;20031;-75
2021/08/26 10:55:50;;;;;;;1.52;0.90;;;;;;;22.46;53.44;101698.63;4926394;29;20027;-75
2021/08/26 10:58:24;;;;;;;1.10;0.70;;;;;;;22.45;53.45;101697.78;4942175;29;20477;-75
2021/08/26 11:01:00;;;;;;;1.55;0.80;;;;;;;22.46;53.32;101695.97;4959039;29;20358;-75
2021/08/26 11:03:31;;;;;;;1.23;0.88;;;;;;;22.45;53.50;101697.78;4959141;29;20023;-75
2021/08/26 11:05:58;;;;;;;2.08;1.00;;;;;;;22.44;53.44;101703.06;4958915;29;20028;-75
2021/08/26 11:08:32;;;;;;;2.08;1.08;;;;;;;22.44;53.43;101693.38;4959034;29;20035;-75
2021/08/26 11:11:18;;;;;;;1.25;0.73;;;;;;;22.43;53.64;101689.00;4958756;29;20537;-75
2021/08/26 11:13:44;;;;;;;1.88;1.10;;;;;;;22.49;53.44;101697.72;4958639;29;20470;-75
2021/08/26 11:16:24;;;;;;;2.03;0.90;;;;;;;22.48;53.44;101695.97;4941492;29;20074;-73
2021/08/26 11:19:15;;;;;;;4.18;1.02;;;;;;;22.48;53.51;101696.84;4958910;29;20045;-73
2021/08/26 11:21:44;;;;;;;1.48;1.08;;;;;;;22.45;53.52;101708.31;4940926;29;20027;-73
2021/08/26 11:24:19;;;;;;;1.90;1.40;;;;;;;22.46;53.58;101711.78;4958791;29;20098;-74
2021/08/26 11:26:50;;;;;;;1.25;0.80;;;;;;;22.42;53.66;101703.06;4942781;29;20422;-74
2021/08/26 11:29:18;;;;;;;2.28;1.45;;;;;;;22.47;53.54;101700.38;4958744;29;20042;-75